createdAt,value
2019-01-04T00:01:36.382Z,1.80
2019-01-04T00:04:10.094Z,1.80
2019-01-04T00:06:58.388Z,1.80
2019-01-04T00:09:32.018Z,1.80
2019-01-04T00:12:31.050Z,1.80
2019-01-04T00:15:05.714Z,1.80
2019-01-04T00:17:39.445Z,1.90
2019-01-04T00:20:25.350Z,1.90
2019-01-04T00:22:59.079Z,1.80
2019-01-04T00:25:32.842Z,1.80
2019-01-04T00:28:14.034Z,1.70
2019-01-04T00:30:47.621Z,1.70
2019-01-04T00:33:21.394Z,1.70
2019-01-04T00:35:58.197Z,1.80
2019-01-04T00:38:31.882Z,1.80
2019-01-04T00:41:17.659Z,1.80
2019-01-04T00:43:51.683Z,1.80
2019-01-04T00:46:37.449Z,1.80
2019-01-04T00:49:11.226Z,1.80
2019-01-04T00:51:44.948Z,1.70
2019-01-04T00:54:18.633Z,1.70
2019-01-04T00:57:12.412Z,1.80
2019-01-04T01:00:05.841Z,1.80
2019-01-04T01:02:45.111Z,1.80
2019-01-04T01:05:36.641Z,1.80
2019-01-04T01:08:18.971Z,1.80
2019-01-04T01:11:29.412Z,1.70
2019-01-04T01:14:48.647Z,1.70
2019-01-04T01:18:00.533Z,1.70
2019-01-04T01:21:10.791Z,1.70
2019-01-04T01:24:05.554Z,1.70
2019-01-04T01:27:11.073Z,1.80
2019-01-04T01:30:07.481Z,1.90
2019-01-04T01:32:44.150Z,1.90
2019-01-04T01:35:45.123Z,1.90
2019-01-04T01:38:54.635Z,2.10
2019-01-04T01:41:52.200Z,2.20
2019-01-04T01:44:49.858Z,2.30
2019-01-04T01:47:26.657Z,2.40
2019-01-04T01:50:27.033Z,2.40
2019-01-04T01:53:00.672Z,2.50
2019-01-04T01:55:43.516Z,2.60
2019-01-04T01:58:17.211Z,2.60
2019-01-04T02:00:50.803Z,2.60
2019-01-04T02:03:28.199Z,2.60
2019-01-04T02:06:01.883Z,2.60
2019-01-04T02:08:47.963Z,2.70
2019-01-04T02:11:21.631Z,2.70
2019-01-04T02:13:55.419Z,2.80
2019-01-04T02:16:29.087Z,2.80
2019-01-04T02:19:15.190Z,2.90
2019-01-04T02:21:48.779Z,3.00
2019-01-04T02:24:22.536Z,3.10
2019-01-04T02:26:56.276Z,3.10
2019-01-04T02:29:29.890Z,3.10
2019-01-04T02:32:03.479Z,3.10
2019-01-04T02:34:37.100Z,3.20
2019-01-04T02:37:10.735Z,3.20
2019-01-04T02:40:02.578Z,3.30
2019-01-04T02:42:36.165Z,3.30
2019-01-04T02:45:09.929Z,3.30
2019-01-04T02:47:57.604Z,3.40
2019-01-04T02:50:31.232Z,3.40
2019-01-04T02:53:04.874Z,3.50
2019-01-04T02:55:38.513Z,3.60
2019-01-04T02:58:12.137Z,3.60
2019-01-04T03:00:46.197Z,3.70
2019-01-04T03:03:19.805Z,3.70
2019-01-04T03:05:53.378Z,3.80
2019-01-04T03:08:36.177Z,3.80
2019-01-04T03:11:09.771Z,3.80
2019-01-04T03:13:43.393Z,3.90
2019-01-04T03:16:16.979Z,4.00
2019-01-04T03:18:50.898Z,4.00
2019-01-04T03:21:24.561Z,4.00
2019-01-04T03:23:58.238Z,4.10
2019-01-04T03:26:31.839Z,4.10
2019-01-04T03:29:08.548Z,4.10
2019-01-04T03:31:42.138Z,4.20
2019-01-04T03:34:15.740Z,4.20
2019-01-04T03:36:49.413Z,4.20
2019-01-04T03:39:23.178Z,4.20
2019-01-04T03:41:56.919Z,4.30
2019-01-04T03:44:39.615Z,4.20
2019-01-04T03:47:13.211Z,4.20
2019-01-04T03:49:46.917Z,4.30
2019-01-04T03:52:20.643Z,4.30
2019-01-04T03:54:57.419Z,4.30
2019-01-04T03:57:31.121Z,4.30
2019-01-04T04:00:07.849Z,4.30
2019-01-04T04:02:41.534Z,4.30
2019-01-04T04:05:15.234Z,4.30
2019-01-04T04:08:08.964Z,4.30
2019-01-04T04:10:42.607Z,4.30
2019-01-04T04:13:16.567Z,4.30
2019-01-04T04:16:05.386Z,4.30
2019-01-04T04:18:38.973Z,4.30
2019-01-04T04:21:32.824Z,4.30
2019-01-04T04:24:06.429Z,4.30
2019-01-04T04:26:42.263Z,4.30
2019-01-04T04:29:15.854Z,4.30
2019-01-04T04:31:54.730Z,4.30
2019-01-04T04:34:28.400Z,4.30
2019-01-04T04:37:14.049Z,4.30
2019-01-04T04:39:47.653Z,4.30
2019-01-04T04:42:27.401Z,4.30
2019-01-04T04:45:01.046Z,4.20
2019-01-04T04:48:01.041Z,4.20
2019-01-04T04:50:34.696Z,4.20
2019-01-04T04:53:20.691Z,4.30
2019-01-04T04:55:54.601Z,4.20
2019-01-04T04:58:33.549Z,4.20
2019-01-04T05:01:07.141Z,4.20
2019-01-04T05:03:44.314Z,4.20
2019-01-04T05:06:18.055Z,4.20
2019-01-04T05:08:58.219Z,4.20
2019-01-04T05:11:31.816Z,4.20
2019-01-04T05:14:14.076Z,4.20
2019-01-04T05:16:47.738Z,4.20
2019-01-04T05:19:21.396Z,4.20
2019-01-04T05:21:54.988Z,4.30
2019-01-04T05:24:28.618Z,4.30
2019-01-04T05:27:02.191Z,4.30
2019-01-04T05:29:35.882Z,4.30
2019-01-04T05:32:09.419Z,4.30
2019-01-04T05:34:43.040Z,4.30
2019-01-04T05:37:16.725Z,4.30
2019-01-04T05:39:50.358Z,4.30
2019-01-04T05:42:24.014Z,4.30
2019-01-04T05:44:57.700Z,4.30
2019-01-04T05:47:31.290Z,4.40
2019-01-04T05:50:06.063Z,4.40
2019-01-04T05:52:39.724Z,4.40
2019-01-04T05:55:13.423Z,4.40
2019-01-04T05:57:47.015Z,4.40
2019-01-04T06:00:20.635Z,4.50
2019-01-04T06:02:54.289Z,4.50
2019-01-04T06:05:28.009Z,4.40
2019-01-04T06:08:01.585Z,4.40
2019-01-04T06:10:38.927Z,4.40
2019-01-04T06:13:12.644Z,4.40
2019-01-04T06:15:46.351Z,4.40
2019-01-04T06:18:19.951Z,4.40
2019-01-04T06:20:53.928Z,4.40
2019-01-04T06:23:27.595Z,4.40
2019-01-04T06:26:04.407Z,4.50
2019-01-04T06:28:38.000Z,4.50
2019-01-04T06:31:11.627Z,4.50
2019-01-04T06:33:45.225Z,4.50
2019-01-04T06:36:18.845Z,4.60
2019-01-04T06:38:52.441Z,6.60
2019-01-04T06:41:26.121Z,4.60
2019-01-04T06:44:00.102Z,4.60
2019-01-04T06:46:33.722Z,4.70
2019-01-04T06:49:13.661Z,4.70
2019-01-04T06:51:47.286Z,4.70
2019-01-04T06:54:57.662Z,4.70
2019-01-04T06:57:31.249Z,4.60
2019-01-04T07:00:06.317Z,4.60
2019-01-04T07:02:49.287Z,4.60
2019-01-04T07:05:22.975Z,4.60
2019-01-04T07:07:58.615Z,4.60
2019-01-04T07:10:32.369Z,4.50
2019-01-04T07:13:06.104Z,4.50
2019-01-04T07:15:39.749Z,4.50
2019-01-04T07:18:13.911Z,4.50
2019-01-04T07:20:54.892Z,4.50
2019-01-04T07:23:28.545Z,4.50
2019-01-04T07:26:14.295Z,4.50
2019-01-04T07:28:47.955Z,4.50
2019-01-04T07:31:33.509Z,4.50
2019-01-04T07:34:07.083Z,4.60
2019-01-04T07:36:58.852Z,4.60
2019-01-04T07:39:32.442Z,4.60
2019-01-04T07:42:06.048Z,4.70
2019-01-04T07:44:48.993Z,4.70
2019-01-04T07:47:22.563Z,4.70
2019-01-04T07:49:58.147Z,4.70
2019-01-04T07:52:31.779Z,4.60
2019-01-04T07:55:07.371Z,4.60
2019-01-04T07:57:44.920Z,4.60
2019-01-04T08:00:18.771Z,4.60
2019-01-04T08:02:52.713Z,4.60
2019-01-04T08:05:28.399Z,4.60
2019-01-04T08:08:02.096Z,4.60
2019-01-04T08:10:35.714Z,4.60
2019-01-04T08:13:14.775Z,4.60
2019-01-04T08:15:48.339Z,4.60
2019-01-04T08:18:22.056Z,4.60
2019-01-04T08:20:55.746Z,4.60
2019-01-04T08:23:37.549Z,4.60
2019-01-04T08:26:11.206Z,4.50
2019-01-04T08:28:44.826Z,4.50
2019-01-04T08:31:27.953Z,4.50
2019-01-04T08:34:01.576Z,4.60
2019-01-04T08:36:35.165Z,4.60
2019-01-04T08:39:17.818Z,4.60
2019-01-04T08:42:11.704Z,4.50
2019-01-04T08:44:45.327Z,4.50
2019-01-04T08:47:22.026Z,4.50
2019-01-04T08:49:55.686Z,4.50
2019-01-04T08:52:29.339Z,4.50
2019-01-04T08:55:02.998Z,4.50
2019-01-04T08:57:36.731Z,4.50
2019-01-04T09:00:19.591Z,4.50
2019-01-04T09:02:53.609Z,4.50
2019-01-04T09:05:28.280Z,4.50
2019-01-04T09:08:01.902Z,4.60
2019-01-04T09:10:35.499Z,4.60
2019-01-04T09:13:09.117Z,4.60
2019-01-04T09:15:42.697Z,4.70
2019-01-04T09:18:28.427Z,4.70
2019-01-04T09:21:02.034Z,4.70
2019-01-04T09:23:38.824Z,4.80
2019-01-04T09:26:12.435Z,4.70
2019-01-04T09:28:49.238Z,4.80
2019-01-04T09:31:22.933Z,4.80
2019-01-04T09:33:57.140Z,4.70
2019-01-04T09:36:30.841Z,4.70
2019-01-04T09:39:06.625Z,4.80
2019-01-04T09:41:55.627Z,4.70
2019-01-04T09:44:32.407Z,4.70
2019-01-04T09:47:06.169Z,4.70
2019-01-04T09:49:39.824Z,4.70
2019-01-04T09:52:13.588Z,4.70
2019-01-04T09:54:47.250Z,4.70
2019-01-04T09:57:23.976Z,4.70
2019-01-04T09:59:57.533Z,4.70
2019-01-04T10:02:46.658Z,4.70
2019-01-04T10:05:20.285Z,4.70
2019-01-04T10:07:56.914Z,4.70
2019-01-04T10:10:30.534Z,4.70
2019-01-04T10:13:04.287Z,4.70
2019-01-04T10:15:37.941Z,4.70
2019-01-04T10:18:26.743Z,4.70
2019-01-04T10:21:00.320Z,4.70
2019-01-04T10:23:46.051Z,4.70
2019-01-04T10:26:19.631Z,4.70
2019-01-04T10:28:53.255Z,4.70
2019-01-04T10:31:30.002Z,4.70
2019-01-04T10:34:03.613Z,4.70
2019-01-04T10:36:37.248Z,4.70
2019-01-04T10:39:10.856Z,4.70
2019-01-04T10:41:44.552Z,4.70
2019-01-04T10:44:18.211Z,4.70
2019-01-04T10:46:51.832Z,4.70
2019-01-04T10:49:25.502Z,4.70
2019-01-04T10:51:59.108Z,4.70
2019-01-04T10:54:32.778Z,4.80
2019-01-04T10:57:06.402Z,4.80
2019-01-04T10:59:46.259Z,4.80
2019-01-04T11:02:19.875Z,4.80
2019-01-04T11:04:53.506Z,4.80
2019-01-04T11:07:27.218Z,4.90
2019-01-04T11:10:00.834Z,4.90
2019-01-04T11:12:34.428Z,4.90
2019-01-04T11:15:08.188Z,4.90
2019-01-04T11:17:41.774Z,5.00
2019-01-04T11:20:39.524Z,5.00
2019-01-04T11:23:31.158Z,5.00
2019-01-04T11:26:10.543Z,5.10
2019-01-04T11:29:20.303Z,5.20
2019-01-04T11:32:02.319Z,5.20
2019-01-04T11:34:59.062Z,5.20
2019-01-04T11:37:41.563Z,5.30
2019-01-04T11:40:24.187Z,5.30
2019-01-04T11:43:09.517Z,5.40
2019-01-04T11:45:55.155Z,5.40
2019-01-04T11:48:51.893Z,5.40
2019-01-04T11:51:35.795Z,5.40
2019-01-04T11:54:09.763Z,5.40
2019-01-04T11:56:43.341Z,5.50
2019-01-04T11:59:23.078Z,5.40
2019-01-04T12:01:56.743Z,5.50
2019-01-04T12:04:30.645Z,5.50
2019-01-04T12:07:04.328Z,5.50
2019-01-04T12:09:37.938Z,5.50
2019-01-04T12:12:11.524Z,5.50
2019-01-04T12:14:45.147Z,5.50
2019-01-04T12:17:18.805Z,5.50
2019-01-04T12:20:06.633Z,5.50
2019-01-04T12:22:40.221Z,5.50
2019-01-04T12:25:13.921Z,5.70
2019-01-04T12:27:47.516Z,5.70
2019-01-04T12:30:21.138Z,5.70
2019-01-04T12:33:06.679Z,5.70
2019-01-04T12:35:40.362Z,5.70
2019-01-04T12:38:29.095Z,5.70
2019-01-04T12:41:02.711Z,5.70
2019-01-04T12:43:36.314Z,5.70
2019-01-04T12:46:10.043Z,5.70
2019-01-04T12:48:43.700Z,5.80
2019-01-04T12:51:17.302Z,5.80
2019-01-04T12:54:00.530Z,5.80
2019-01-04T12:56:34.149Z,5.80
2019-01-04T12:59:19.858Z,5.80
2019-01-04T13:01:53.470Z,5.80
2019-01-04T13:04:27.133Z,5.80
2019-01-04T13:07:00.823Z,5.80
2019-01-04T13:09:34.482Z,5.80
2019-01-04T13:12:08.241Z,5.80
2019-01-04T13:14:41.831Z,5.80
2019-01-04T13:17:15.445Z,5.80
2019-01-04T13:19:49.043Z,5.80
2019-01-04T13:22:22.667Z,5.80
2019-01-04T13:24:56.267Z,5.80
2019-01-04T13:27:36.181Z,5.80
2019-01-04T13:30:09.915Z,5.80
2019-01-04T13:32:43.675Z,5.80
2019-01-04T13:35:17.347Z,5.70
2019-01-04T13:37:50.971Z,5.70
2019-01-04T13:40:24.694Z,5.60
2019-01-04T13:43:07.022Z,5.60
2019-01-04T13:45:40.757Z,5.50
2019-01-04T13:48:14.341Z,5.50
2019-01-04T13:50:48.235Z,5.40
2019-01-04T13:53:21.823Z,5.40
2019-01-04T13:55:58.989Z,5.30
2019-01-04T13:58:32.524Z,5.30
2019-01-04T14:01:06.222Z,5.30
2019-01-04T14:04:07.233Z,5.20
2019-01-04T14:06:40.997Z,5.20
2019-01-04T14:09:14.589Z,5.10
2019-01-04T14:11:51.606Z,5.10
2019-01-04T14:14:25.333Z,5.10
2019-01-04T14:17:00.664Z,5.00
2019-01-04T14:19:35.327Z,5.00
2019-01-04T14:22:09.298Z,5.00
2019-01-04T14:24:43.021Z,4.90
2019-01-04T14:27:35.182Z,4.90
2019-01-04T14:30:11.095Z,4.80
2019-01-04T14:32:45.439Z,4.80
2019-01-04T14:35:22.112Z,4.80
2019-01-04T14:37:55.723Z,4.70
2019-01-04T14:40:29.323Z,4.70
2019-01-04T14:43:03.086Z,4.80
2019-01-04T14:45:36.755Z,4.70
2019-01-04T14:48:10.468Z,4.60
2019-01-04T14:50:44.212Z,4.60
2019-01-04T14:53:17.912Z,4.60
2019-01-04T14:56:10.456Z,4.50
2019-01-04T14:58:44.087Z,4.50
2019-01-04T15:01:17.832Z,4.50
2019-01-04T15:03:51.520Z,4.50
2019-01-04T15:06:25.192Z,4.50
2019-01-04T15:09:10.813Z,4.50
2019-01-04T15:11:44.480Z,4.50
2019-01-04T15:14:19.431Z,4.50
2019-01-04T15:16:53.125Z,4.40
2019-01-04T15:19:36.832Z,4.50
2019-01-04T15:22:10.419Z,4.50
2019-01-04T15:25:02.720Z,4.50
2019-01-04T15:27:36.384Z,4.50
2019-01-04T15:30:18.118Z,4.50
2019-01-04T15:32:50.923Z,4.50
2019-01-04T15:35:36.809Z,4.50
2019-01-04T15:38:10.460Z,4.40
2019-01-04T15:40:44.116Z,4.40
2019-01-04T15:43:17.859Z,4.40
2019-01-04T15:45:51.468Z,4.50
2019-01-04T15:48:34.190Z,4.40
2019-01-04T15:51:07.888Z,4.40
2019-01-04T15:53:43.115Z,4.50
2019-01-04T15:56:16.819Z,4.50
2019-01-04T15:59:02.610Z,4.50
2019-01-04T16:01:36.301Z,4.60
2019-01-04T16:04:09.947Z,4.60
2019-01-04T16:06:43.663Z,4.60
2019-01-04T16:09:17.250Z,4.60
2019-01-04T16:11:50.874Z,4.60
2019-01-04T16:14:24.505Z,4.60
2019-01-04T16:16:58.094Z,4.60
2019-01-04T16:19:41.863Z,4.60
2019-01-04T16:22:15.519Z,4.60
2019-01-04T16:25:04.894Z,4.60
2019-01-04T16:27:38.566Z,4.60
2019-01-04T16:30:14.597Z,4.60
2019-01-04T16:32:48.286Z,4.70
2019-01-04T16:35:21.966Z,4.70
2019-01-04T16:37:58.805Z,4.70
2019-01-04T16:40:32.506Z,4.80
2019-01-04T16:43:13.676Z,4.80
2019-01-04T16:45:47.370Z,4.80
2019-01-04T16:48:33.270Z,4.80
2019-01-04T16:51:28.140Z,4.90
2019-01-04T16:54:01.799Z,4.90
2019-01-04T16:56:36.578Z,5.00
2019-01-04T16:59:10.183Z,4.90
2019-01-04T17:01:46.288Z,4.90
2019-01-04T17:04:20.042Z,4.90
2019-01-04T17:06:53.658Z,5.00
2019-01-04T17:09:44.621Z,5.00
2019-01-04T17:12:18.383Z,4.90
2019-01-04T17:15:10.119Z,5.00
2019-01-04T17:17:43.731Z,5.00
2019-01-04T17:20:41.855Z,5.00
2019-01-04T17:23:15.615Z,5.00
2019-01-04T17:26:12.607Z,5.00
2019-01-04T17:28:46.224Z,4.90
2019-01-04T17:31:22.934Z,5.00
2019-01-04T17:33:56.619Z,5.00
2019-01-04T17:36:39.579Z,5.00
2019-01-04T17:39:13.202Z,5.10
2019-01-04T17:41:46.782Z,5.10
2019-01-04T17:44:20.418Z,5.20
2019-01-04T17:46:54.018Z,5.20
2019-01-04T17:49:27.701Z,5.20
2019-01-04T17:52:01.381Z,5.30
2019-01-04T17:54:35.014Z,5.40
2019-01-04T17:57:11.725Z,5.40
2019-01-04T17:59:45.418Z,5.40
2019-01-04T18:02:31.458Z,5.50
2019-01-04T18:05:05.822Z,5.50
2019-01-04T18:07:42.528Z,5.60
2019-01-04T18:10:16.205Z,5.70
2019-01-04T18:12:52.829Z,5.70
2019-01-04T18:15:26.460Z,5.40
2019-01-04T18:18:00.061Z,5.90
2019-01-04T18:20:33.682Z,6.00
2019-01-04T18:23:07.345Z,6.00
2019-01-04T18:25:41.036Z,6.10
2019-01-04T18:28:14.670Z,6.10
2019-01-04T18:31:09.698Z,6.10
2019-01-04T18:33:46.328Z,6.20
2019-01-04T18:36:19.966Z,6.20
2019-01-04T18:38:55.855Z,6.20
2019-01-04T18:41:29.554Z,6.20
2019-01-04T18:44:09.141Z,6.30
2019-01-04T18:46:42.773Z,6.30
2019-01-04T18:49:37.554Z,6.30
2019-01-04T18:52:11.175Z,6.30
2019-01-04T18:54:47.954Z,6.30
2019-01-04T18:57:21.581Z,6.30
2019-01-04T18:59:57.185Z,6.30
2019-01-04T19:02:30.841Z,6.30
2019-01-04T19:05:08.052Z,6.30
2019-01-04T19:07:41.748Z,6.30
2019-01-04T19:10:15.429Z,6.30
2019-01-04T19:12:49.112Z,6.30
2019-01-04T19:15:25.792Z,6.40
2019-01-04T19:21:04.408Z,6.40
2019-01-04T19:23:39.685Z,6.40
2019-01-04T19:26:20.686Z,6.40
2019-01-04T19:28:54.346Z,6.50
2019-01-04T19:31:28.033Z,6.50
2019-01-04T19:34:04.768Z,6.50
2019-01-04T19:36:38.464Z,6.50
2019-01-04T19:39:12.119Z,6.50
2019-01-04T19:41:45.811Z,6.50
2019-01-04T19:44:22.520Z,6.50
2019-01-04T19:46:56.214Z,6.50
2019-01-04T19:49:30.026Z,6.50
2019-01-04T19:52:03.794Z,6.50
2019-01-04T19:54:41.097Z,6.50
2019-01-04T19:57:14.724Z,6.50
2019-01-04T19:59:48.381Z,6.50
2019-01-04T20:02:22.075Z,6.50
2019-01-04T20:04:57.152Z,6.50
2019-01-04T20:11:43.484Z,6.60
2019-01-04T20:17:55.832Z,6.60
2019-01-04T20:20:37.710Z,6.60
2019-01-04T20:23:22.374Z,6.60
2019-01-04T20:25:57.975Z,6.60
2019-01-04T20:28:51.316Z,6.60
2019-01-04T20:31:26.539Z,6.70
2019-01-04T20:34:22.084Z,6.70
2019-01-04T20:37:10.700Z,6.70
2019-01-04T20:39:48.839Z,6.70
2019-01-04T20:42:43.943Z,6.70
2019-01-04T20:45:19.272Z,6.70
2019-01-04T20:48:14.275Z,6.80
2019-01-04T20:51:07.056Z,6.80
2019-01-04T20:53:54.319Z,6.80
2019-01-04T20:56:29.593Z,6.80
2019-01-04T20:59:33.532Z,6.80
2019-01-04T21:02:11.525Z,6.80
2019-01-04T21:04:49.288Z,6.80
2019-01-04T21:07:25.175Z,6.80
2019-01-04T21:10:19.812Z,6.90
2019-01-04T21:12:55.178Z,6.80
2019-01-04T21:15:42.693Z,7.10
2019-01-04T21:18:17.967Z,6.90
2019-01-04T21:20:57.936Z,6.90
2019-01-04T21:23:51.566Z,6.90
2019-01-04T21:26:39.383Z,7.00
2019-01-04T21:29:29.879Z,7.00
2019-01-04T21:32:09.802Z,7.00
2019-01-04T21:34:48.273Z,7.00
2019-01-04T21:37:32.575Z,7.00
2019-01-04T21:40:24.242Z,7.10
2019-01-04T21:42:59.653Z,7.10
2019-01-04T21:45:51.682Z,7.20
2019-01-04T21:48:39.050Z,7.10
2019-01-04T21:54:41.130Z,7.20
2019-01-04T21:57:32.391Z,7.20
2019-01-04T22:00:18.923Z,7.20
2019-01-04T22:03:03.549Z,7.20
2019-01-04T22:05:57.026Z,7.30
2019-01-04T22:08:32.337Z,7.10
2019-01-04T22:11:32.884Z,7.20
2019-01-04T22:14:15.826Z,7.20
2019-01-04T22:16:53.639Z,7.20
2019-01-04T22:19:50.107Z,7.20
2019-01-04T22:22:25.463Z,7.20
2019-01-04T22:25:12.783Z,7.30
2019-01-04T22:27:51.106Z,7.30
2019-01-04T22:30:41.308Z,7.20
2019-01-04T22:33:20.564Z,7.20
2019-01-04T22:35:58.531Z,7.20
2019-01-04T22:38:37.005Z,7.30
2019-01-04T22:41:17.655Z,7.20
2019-01-04T22:44:15.242Z,7.20
2019-01-04T22:47:05.791Z,7.20
2019-01-04T22:52:38.186Z,7.20
2019-01-04T22:55:16.736Z,7.10
2019-01-04T22:58:11.788Z,7.10
2019-01-04T23:03:47.522Z,7.00
2019-01-04T23:06:53.485Z,7.00
2019-01-04T23:09:41.417Z,7.00
2019-01-04T23:12:33.139Z,7.00
2019-01-04T23:15:20.502Z,7.00
2019-01-04T23:17:55.839Z,6.90
2019-01-04T23:20:53.455Z,7.00
2019-01-04T23:23:31.443Z,6.90
2019-01-04T23:26:22.054Z,7.00
2019-01-04T23:29:18.098Z,7.00
2019-01-04T23:31:53.430Z,7.00
2019-01-04T23:34:34.483Z,7.00
2019-01-04T23:37:09.875Z,7.00
2019-01-04T23:39:45.239Z,7.00
2019-01-04T23:42:32.590Z,7.00
2019-01-04T23:45:23.243Z,7.00
2019-01-04T23:48:06.726Z,7.00
2019-01-04T23:51:06.269Z,7.00
2019-01-04T23:53:56.800Z,7.00
2019-01-04T23:59:31.577Z,7.00
